createdAt,value
2018-02-07T00:00:30.475Z,1010.48
2018-02-07T00:01:10.984Z,1010.46
2018-02-07T00:01:51.540Z,1010.49
2018-02-07T00:02:32.085Z,1010.46
2018-02-07T00:03:12.701Z,1010.47
2018-02-07T00:03:53.247Z,1010.48
2018-02-07T00:04:33.803Z,1010.47
2018-02-07T00:05:14.396Z,1010.45
2018-02-07T00:05:54.954Z,1010.46
2018-02-07T00:06:35.517Z,1010.41
2018-02-07T00:07:16.063Z,1010.39
2018-02-07T00:07:56.608Z,1010.4
2018-02-07T00:08:37.143Z,1010.41
2018-02-07T00:09:17.714Z,1010.41
2018-02-07T00:09:58.281Z,1010.4
2018-02-07T00:10:38.875Z,1010.42
2018-02-07T00:11:19.496Z,1010.4
2018-02-07T00:12:00.076Z,1010.43
2018-02-07T00:12:40.615Z,1010.37
2018-02-07T00:13:21.218Z,1010.4
2018-02-07T00:14:01.789Z,1010.43
2018-02-07T00:14:42.342Z,1010.43
2018-02-07T00:15:22.905Z,1010.43
2018-02-07T00:16:03.482Z,1010.38
2018-02-07T00:16:44.174Z,1010.41
2018-02-07T00:17:24.729Z,1010.44
2018-02-07T00:18:05.299Z,1010.46
2018-02-07T00:18:45.860Z,1010.47
2018-02-07T00:19:26.540Z,1010.49
2018-02-07T00:20:07.126Z,1010.51
2018-02-07T00:20:47.718Z,1010.48
2018-02-07T00:21:28.355Z,1010.49
2018-02-07T00:22:09.027Z,1010.46
2018-02-07T00:22:49.623Z,1010.48
2018-02-07T00:23:30.221Z,1010.52
2018-02-07T00:24:10.816Z,1010.52
2018-02-07T00:24:51.429Z,1010.52
2018-02-07T00:25:31.982Z,1010.54
2018-02-07T00:26:12.516Z,1010.55
2018-02-07T00:26:53.081Z,1010.57
2018-02-07T00:27:33.611Z,1010.55
2018-02-07T00:28:14.148Z,1010.52
2018-02-07T00:28:54.754Z,1010.49
2018-02-07T00:29:35.300Z,1010.52
2018-02-07T00:30:15.878Z,1010.52
2018-02-07T00:30:56.543Z,1010.52
2018-02-07T00:31:37.128Z,1010.49
2018-02-07T00:32:17.717Z,1010.46
2018-02-07T00:32:58.276Z,1010.45
2018-02-07T00:33:38.871Z,1010.47
2018-02-07T00:34:19.444Z,1010.41
2018-02-07T00:35:00.009Z,1010.41
2018-02-07T00:35:40.525Z,1010.48
2018-02-07T00:36:21.135Z,1010.43
2018-02-07T00:37:01.791Z,1010.41
2018-02-07T00:37:42.288Z,1010.37
2018-02-07T00:38:22.871Z,1010.36
2018-02-07T00:39:03.460Z,1010.32
2018-02-07T00:39:44.043Z,1010.3
2018-02-07T00:40:24.583Z,1010.32
2018-02-07T00:41:05.242Z,1010.33
2018-02-07T00:41:45.817Z,1010.29
2018-02-07T00:42:26.369Z,1010.28
2018-02-07T00:43:06.952Z,1010.28
2018-02-07T00:43:47.565Z,1010.29
2018-02-07T00:44:28.162Z,1010.29
2018-02-07T00:45:08.776Z,1010.3
2018-02-07T00:45:49.370Z,1010.31
2018-02-07T00:46:29.916Z,1010.28
2018-02-07T00:47:10.445Z,1010.27
2018-02-07T00:47:51.023Z,1010.29
2018-02-07T00:48:31.577Z,1010.29
2018-02-07T00:49:12.101Z,1010.32
2018-02-07T00:49:52.666Z,1010.33
2018-02-07T00:50:33.212Z,1010.28
2018-02-07T00:51:13.777Z,1010.31
2018-02-07T00:51:54.370Z,1010.33
2018-02-07T00:52:34.920Z,1010.3
2018-02-07T00:53:15.473Z,1010.3
2018-02-07T00:53:56.029Z,1010.32
2018-02-07T00:54:36.650Z,1010.31
2018-02-07T00:55:17.192Z,1010.29
2018-02-07T00:55:57.801Z,1010.27
2018-02-07T00:56:38.370Z,1010.28
2018-02-07T00:57:18.966Z,1010.28
2018-02-07T00:57:59.477Z,1010.26
2018-02-07T00:58:40.047Z,1010.32
2018-02-07T00:59:20.624Z,1010.31
2018-02-07T01:00:01.179Z,1010.31
2018-02-07T01:00:41.790Z,1010.35
2018-02-07T01:01:22.394Z,1010.32
2018-02-07T01:02:03.021Z,1010.36
2018-02-07T01:02:43.637Z,1010.36
2018-02-07T01:03:24.244Z,1010.31
2018-02-07T01:04:04.805Z,1010.33
2018-02-07T01:04:45.369Z,1010.33
2018-02-07T01:05:26.007Z,1010.32
2018-02-07T01:06:06.656Z,1010.32
2018-02-07T01:06:47.208Z,1010.31
2018-02-07T01:07:27.798Z,1010.33
2018-02-07T01:08:08.379Z,1010.3
2018-02-07T01:08:49.004Z,1010.27
2018-02-07T01:09:29.568Z,1010.29
2018-02-07T01:10:10.129Z,1010.31
2018-02-07T01:10:50.676Z,1010.31
2018-02-07T01:11:31.258Z,1010.33
2018-02-07T01:12:11.809Z,1010.29
2018-02-07T01:12:52.447Z,1010.3
2018-02-07T01:13:32.983Z,1010.33
2018-02-07T01:14:13.536Z,1010.34
2018-02-07T01:14:54.136Z,1010.33
2018-02-07T01:15:34.738Z,1010.33
2018-02-07T01:16:15.322Z,1010.32
2018-02-07T01:16:55.885Z,1010.31
2018-02-07T01:17:36.416Z,1010.26
2018-02-07T01:18:17.016Z,1010.3
2018-02-07T01:18:57.587Z,1010.24
2018-02-07T01:19:38.123Z,1010.24
2018-02-07T01:20:18.661Z,1010.22
2018-02-07T01:20:59.263Z,1010.26
2018-02-07T01:21:39.831Z,1010.26
2018-02-07T01:22:20.398Z,1010.26
2018-02-07T01:23:00.971Z,1010.29
2018-02-07T01:23:41.540Z,1010.26
2018-02-07T01:24:22.123Z,1010.26
2018-02-07T01:25:02.728Z,1010.28
2018-02-07T01:25:43.371Z,1010.26
2018-02-07T01:26:23.922Z,1010.2
2018-02-07T01:27:04.494Z,1010.19
2018-02-07T01:27:45.130Z,1010.21
2018-02-07T01:28:25.698Z,1010.19
2018-02-07T01:29:06.337Z,1010.18
2018-02-07T01:29:46.888Z,1010.19
2018-02-07T01:30:27.476Z,1010.17
2018-02-07T01:31:08.098Z,1010.17
2018-02-07T01:31:48.692Z,1010.18
2018-02-07T01:32:29.216Z,1010.17
2018-02-07T01:33:09.792Z,1010.18
2018-02-07T01:33:50.335Z,1010.17
2018-02-07T01:34:30.894Z,1010.15
2018-02-07T01:35:11.464Z,1010.16
2018-02-07T01:35:52.056Z,1010.16
2018-02-07T01:36:32.562Z,1010.11
2018-02-07T01:37:13.159Z,1010.17
2018-02-07T01:37:53.741Z,1010.14
2018-02-07T01:38:34.298Z,1010.16
2018-02-07T01:39:14.845Z,1010.15
2018-02-07T01:39:55.455Z,1010.13
2018-02-07T01:40:36.007Z,1010.14
2018-02-07T01:41:16.619Z,1010.16
2018-02-07T01:41:57.176Z,1010.15
2018-02-07T01:42:37.777Z,1010.1
2018-02-07T01:43:18.304Z,1010.12
2018-02-07T01:43:58.885Z,1010.15
2018-02-07T01:44:39.442Z,1010.11
2018-02-07T01:45:20.026Z,1010.1
2018-02-07T01:46:00.604Z,1010.11
2018-02-07T01:46:41.161Z,1010.1
2018-02-07T01:47:21.721Z,1010.1
2018-02-07T01:48:02.402Z,1010.13
2018-02-07T01:48:42.992Z,1010.17
2018-02-07T01:49:23.556Z,1010.12
2018-02-07T01:50:04.143Z,1010.17
2018-02-07T01:50:44.699Z,1010.18
2018-02-07T01:51:25.234Z,1010.17
2018-02-07T01:52:05.885Z,1010.23
2018-02-07T01:52:46.512Z,1010.18
2018-02-07T01:53:27.039Z,1010.21
2018-02-07T01:54:07.625Z,1010.2
2018-02-07T01:54:48.254Z,1010.19
2018-02-07T01:55:28.870Z,1010.19
2018-02-07T01:56:09.466Z,1010.11
2018-02-07T01:56:50.024Z,1010.16
2018-02-07T01:57:30.585Z,1010.1
2018-02-07T01:58:11.150Z,1010.13
2018-02-07T01:58:51.736Z,1010.09
2018-02-07T01:59:32.315Z,1010.15
2018-02-07T02:00:12.881Z,1010.13
2018-02-07T02:00:53.427Z,1010.11
2018-02-07T02:01:33.990Z,1010.12
2018-02-07T02:02:14.592Z,1010.11
2018-02-07T02:02:55.194Z,1010.09
2018-02-07T02:03:35.714Z,1010.08
2018-02-07T02:04:16.263Z,1010.08
2018-02-07T02:04:56.827Z,1010.05
2018-02-07T02:05:37.400Z,1010.02
2018-02-07T02:06:18.055Z,1010.04
2018-02-07T02:06:58.639Z,1009.98
2018-02-07T02:07:39.227Z,1009.99
2018-02-07T02:08:19.873Z,1009.97
2018-02-07T02:09:00.437Z,1010.01
2018-02-07T02:09:40.992Z,1009.99
2018-02-07T02:10:21.546Z,1010.02
2018-02-07T02:11:02.147Z,1010.05
2018-02-07T02:11:42.732Z,1010.1
2018-02-07T02:12:23.315Z,1010.07
2018-02-07T02:13:03.899Z,1010.11
2018-02-07T02:13:44.486Z,1010.09
2018-02-07T02:14:25.106Z,1010.07
2018-02-07T02:15:05.638Z,1010.06
2018-02-07T02:15:46.176Z,1010.07
2018-02-07T02:16:26.720Z,1010.06
2018-02-07T02:17:07.288Z,1010.04
2018-02-07T02:17:47.859Z,1010.06
2018-02-07T02:18:28.438Z,1010.03
2018-02-07T02:19:08.979Z,1010.07
2018-02-07T02:19:49.560Z,1010.11
2018-02-07T02:20:30.141Z,1010.13
2018-02-07T02:21:10.715Z,1010.15
2018-02-07T02:21:51.257Z,1010.15
2018-02-07T02:22:31.864Z,1010.18
2018-02-07T02:23:12.431Z,1010.14
2018-02-07T02:23:52.967Z,1010.14
2018-02-07T02:24:33.525Z,1010.13
2018-02-07T02:25:14.095Z,1010.12
2018-02-07T02:25:54.691Z,1010.12
2018-02-07T02:26:35.277Z,1010.08
2018-02-07T02:27:15.851Z,1010.07
2018-02-07T02:27:56.346Z,1010.13
2018-02-07T02:28:36.941Z,1010.13
2018-02-07T02:29:17.510Z,1010.14
2018-02-07T02:29:58.133Z,1010.1
2018-02-07T02:30:38.649Z,1010.13
2018-02-07T02:31:19.236Z,1010.15
2018-02-07T02:31:59.869Z,1010.19
2018-02-07T02:32:40.386Z,1010.19
2018-02-07T02:33:20.946Z,1010.23
2018-02-07T02:34:01.570Z,1010.25
2018-02-07T02:34:42.157Z,1010.21
2018-02-07T02:35:22.745Z,1010.25
2018-02-07T02:36:03.350Z,1010.24
2018-02-07T02:36:43.935Z,1010.29
2018-02-07T02:37:24.539Z,1010.28
2018-02-07T02:38:05.082Z,1010.29
2018-02-07T02:38:45.659Z,1010.25
2018-02-07T02:39:26.195Z,1010.23
2018-02-07T02:40:06.796Z,1010.22
2018-02-07T02:40:47.342Z,1010.23
2018-02-07T02:41:27.870Z,1010.22
2018-02-07T02:42:08.475Z,1010.23
2018-02-07T02:42:49.052Z,1010.23
2018-02-07T02:43:29.672Z,1010.28
2018-02-07T02:44:10.276Z,1010.3
2018-02-07T02:44:50.826Z,1010.3
2018-02-07T02:45:31.354Z,1010.32
2018-02-07T02:46:11.881Z,1010.34
2018-02-07T02:46:52.472Z,1010.32
2018-02-07T02:47:32.970Z,1010.34
2018-02-07T02:48:13.529Z,1010.34
2018-02-07T02:48:54.132Z,1010.34
2018-02-07T02:49:34.680Z,1010.34
2018-02-07T02:50:15.276Z,1010.39
2018-02-07T02:50:55.815Z,1010.39
2018-02-07T02:51:36.377Z,1010.38
2018-02-07T02:52:16.924Z,1010.35
2018-02-07T02:52:57.483Z,1010.37
2018-02-07T02:53:38.167Z,1010.39
2018-02-07T02:54:18.715Z,1010.4
2018-02-07T02:54:59.288Z,1010.35
2018-02-07T02:55:39.866Z,1010.37
2018-02-07T02:56:20.425Z,1010.39
2018-02-07T02:57:00.972Z,1010.41
2018-02-07T02:57:41.618Z,1010.43
2018-02-07T02:58:22.151Z,1010.41
2018-02-07T02:59:02.727Z,1010.42
2018-02-07T02:59:43.304Z,1010.44
2018-02-07T03:00:23.859Z,1010.4
2018-02-07T03:01:04.403Z,1010.41
2018-02-07T03:01:44.960Z,1010.41
2018-02-07T03:02:25.563Z,1010.4
2018-02-07T03:03:06.135Z,1010.43
2018-02-07T03:03:46.720Z,1010.38
2018-02-07T03:04:27.301Z,1010.35
2018-02-07T03:05:07.856Z,1010.37
2018-02-07T03:05:48.560Z,1010.31
2018-02-07T03:06:29.121Z,1010.3
2018-02-07T03:07:09.695Z,1010.31
2018-02-07T03:07:50.269Z,1010.34
2018-02-07T03:08:30.792Z,1010.3
2018-02-07T03:09:11.408Z,1010.3
2018-02-07T03:09:51.989Z,1010.28
2018-02-07T03:10:32.587Z,1010.29
2018-02-07T03:11:13.219Z,1010.3
2018-02-07T03:11:53.759Z,1010.32
2018-02-07T03:12:34.314Z,1010.33
2018-02-07T03:13:14.886Z,1010.34
2018-02-07T03:13:55.448Z,1010.38
2018-02-07T03:14:35.989Z,1010.34
2018-02-07T03:15:16.540Z,1010.34
2018-02-07T03:15:57.160Z,1010.35
2018-02-07T03:16:37.742Z,1010.36
2018-02-07T03:17:18.354Z,1010.37
2018-02-07T03:17:58.905Z,1010.34
2018-02-07T03:18:39.464Z,1010.38
2018-02-07T03:19:20.026Z,1010.36
2018-02-07T03:20:00.577Z,1010.31
2018-02-07T03:20:41.147Z,1010.32
2018-02-07T03:21:21.726Z,1010.27
2018-02-07T03:22:02.291Z,1010.29
2018-02-07T03:22:42.863Z,1010.26
2018-02-07T03:23:23.454Z,1010.18
2018-02-07T03:24:04.008Z,1010.16
2018-02-07T03:24:44.588Z,1010.13
2018-02-07T03:25:25.249Z,1010.09
2018-02-07T03:26:05.842Z,1010.11
2018-02-07T03:26:46.373Z,1010.13
2018-02-07T03:27:26.914Z,1010.15
2018-02-07T03:28:07.466Z,1010.19
2018-02-07T03:28:48.016Z,1010.2
2018-02-07T03:29:28.608Z,1010.23
2018-02-07T03:30:09.151Z,1010.24
2018-02-07T03:30:49.709Z,1010.17
2018-02-07T03:31:30.262Z,1010.22
2018-02-07T03:32:10.799Z,1010.23
2018-02-07T03:32:51.421Z,1010.24
2018-02-07T03:33:32.022Z,1010.25
2018-02-07T03:34:12.575Z,1010.2
2018-02-07T03:34:53.112Z,1010.23
2018-02-07T03:35:33.657Z,1010.23
2018-02-07T03:36:14.341Z,1010.21
2018-02-07T03:36:54.898Z,1010.19
2018-02-07T03:37:35.435Z,1010.22
2018-02-07T03:38:15.983Z,1010.19
2018-02-07T03:38:56.542Z,1010.16
2018-02-07T03:39:37.082Z,1010.19
2018-02-07T03:40:17.637Z,1010.15
2018-02-07T03:40:58.226Z,1010.16
2018-02-07T03:41:38.878Z,1010.17
2018-02-07T03:42:19.446Z,1010.16
2018-02-07T03:43:00.052Z,1010.21
2018-02-07T03:43:40.683Z,1010.22
2018-02-07T03:44:21.235Z,1010.2
2018-02-07T03:45:01.811Z,1010.16
2018-02-07T03:45:42.349Z,1010.23
2018-02-07T03:46:22.912Z,1010.16
2018-02-07T03:47:03.476Z,1010.2
2018-02-07T03:47:44.011Z,1010.18
2018-02-07T03:48:24.563Z,1010.21
2018-02-07T03:49:05.116Z,1010.21
2018-02-07T03:49:45.660Z,1010.22
2018-02-07T03:50:26.194Z,1010.24
2018-02-07T03:51:06.769Z,1010.24
2018-02-07T03:51:47.332Z,1010.23
2018-02-07T03:52:27.867Z,1010.24
2018-02-07T03:53:08.415Z,1010.18
2018-02-07T03:53:48.961Z,1010.21
2018-02-07T03:54:29.523Z,1010.23
2018-02-07T03:55:10.088Z,1010.24
2018-02-07T03:55:50.670Z,1010.25
2018-02-07T03:56:31.275Z,1010.2
2018-02-07T03:57:11.824Z,1010.19
2018-02-07T03:57:52.422Z,1010.22
2018-02-07T03:58:32.924Z,1010.2
2018-02-07T03:59:13.535Z,1010.17
2018-02-07T03:59:54.084Z,1010.23
2018-02-07T04:00:34.663Z,1010.22
2018-02-07T04:01:15.245Z,1010.23
2018-02-07T04:01:55.845Z,1010.22
2018-02-07T04:02:36.430Z,1010.22
2018-02-07T04:03:17.023Z,1010.18
2018-02-07T04:03:57.555Z,1010.16
2018-02-07T04:04:38.108Z,1010.16
2018-02-07T04:05:18.659Z,1010.12
2018-02-07T04:05:59.212Z,1010.09
2018-02-07T04:06:39.767Z,1010.09
2018-02-07T04:07:20.320Z,1010.08
2018-02-07T04:08:00.862Z,1010.05
2018-02-07T04:08:41.411Z,1010.04
2018-02-07T04:09:21.972Z,1010.03
2018-02-07T04:10:02.535Z,1010.06
2018-02-07T04:10:43.098Z,1010
2018-02-07T04:11:23.641Z,1010
2018-02-07T04:12:04.200Z,1010.03
2018-02-07T04:12:44.749Z,1010.02
2018-02-07T04:13:25.315Z,1010.06
2018-02-07T04:14:05.951Z,1010.06
2018-02-07T04:14:46.503Z,1010.04
2018-02-07T04:15:27.133Z,1010.08
2018-02-07T04:16:07.668Z,1010.09
2018-02-07T04:16:48.264Z,1010.1
2018-02-07T04:17:28.863Z,1010.11
2018-02-07T04:18:09.432Z,1010.05
2018-02-07T04:18:49.997Z,1010.05
2018-02-07T04:19:30.534Z,1010.06
2018-02-07T04:20:11.126Z,1010.03
2018-02-07T04:20:51.676Z,1010
2018-02-07T04:21:32.214Z,1009.98
2018-02-07T04:22:12.773Z,1009.97
2018-02-07T04:22:53.346Z,1009.97
2018-02-07T04:23:33.909Z,1009.93
2018-02-07T04:24:14.488Z,1009.91
2018-02-07T04:24:55.053Z,1009.9
2018-02-07T04:25:35.643Z,1009.93
2018-02-07T04:26:16.227Z,1009.95
2018-02-07T04:26:56.784Z,1009.97
2018-02-07T04:27:37.390Z,1010
2018-02-07T04:28:17.948Z,1010
2018-02-07T04:28:58.509Z,1010.04
2018-02-07T04:29:39.073Z,1010.05
2018-02-07T04:30:19.624Z,1010.05
2018-02-07T04:31:00.191Z,1010.06
2018-02-07T04:31:40.788Z,1010.08
2018-02-07T04:32:21.351Z,1010.08
2018-02-07T04:33:01.884Z,1010.08
2018-02-07T04:33:42.475Z,1010.08
2018-02-07T04:34:23.026Z,1010.1
2018-02-07T04:35:03.578Z,1010.12
2018-02-07T04:35:44.148Z,1010.15
2018-02-07T04:36:24.722Z,1010.15
2018-02-07T04:37:05.284Z,1010.11
2018-02-07T04:37:45.855Z,1010.07
2018-02-07T04:38:26.470Z,1010.11
2018-02-07T04:39:07.049Z,1010.09
2018-02-07T04:39:47.637Z,1010.05
2018-02-07T04:40:28.177Z,1010.07
2018-02-07T04:41:08.762Z,1010.09
2018-02-07T04:41:49.288Z,1010.05
2018-02-07T04:42:29.870Z,1010.08
2018-02-07T04:43:10.551Z,1010.13
2018-02-07T04:43:51.134Z,1010.09
2018-02-07T04:44:31.704Z,1010.1
2018-02-07T04:45:12.263Z,1010.12
2018-02-07T04:45:52.826Z,1010.12
2018-02-07T04:46:33.374Z,1010.1
2018-02-07T04:47:13.955Z,1010.08
2018-02-07T04:47:54.515Z,1010.14
2018-02-07T04:48:35.068Z,1010.06
2018-02-07T04:49:15.739Z,1010.07
2018-02-07T04:49:56.334Z,1010.11
2018-02-07T04:50:36.993Z,1010.09
2018-02-07T04:51:17.527Z,1010.11
2018-02-07T04:51:58.106Z,1010.15
2018-02-07T04:52:38.726Z,1010.11
2018-02-07T04:53:19.286Z,1010.15
2018-02-07T04:53:59.838Z,1010.15
2018-02-07T04:54:40.399Z,1010.11
2018-02-07T04:55:20.991Z,1010.11
2018-02-07T04:56:01.532Z,1010.15
2018-02-07T04:56:42.088Z,1010.1
2018-02-07T04:57:22.650Z,1010.09
2018-02-07T04:58:03.212Z,1010.07
2018-02-07T04:58:43.741Z,1010.05
2018-02-07T04:59:24.314Z,1010.07
2018-02-07T05:00:04.842Z,1010.04
2018-02-07T05:00:45.410Z,1010.05
2018-02-07T05:01:25.944Z,1010.03
2018-02-07T05:02:06.494Z,1010.07
2018-02-07T05:02:47.043Z,1010.06
2018-02-07T05:03:27.596Z,1010.04
2018-02-07T05:04:08.170Z,1010.06
2018-02-07T05:04:48.716Z,1010.11
2018-02-07T05:05:29.250Z,1010.08
2018-02-07T05:06:09.793Z,1010.06
2018-02-07T05:06:50.347Z,1010.09
2018-02-07T05:07:30.886Z,1010.1
2018-02-07T05:08:11.467Z,1010.1
2018-02-07T05:08:52.010Z,1010.12
2018-02-07T05:09:32.584Z,1010.15
2018-02-07T05:10:13.117Z,1010.16
2018-02-07T05:10:53.693Z,1010.17
2018-02-07T05:11:34.244Z,1010.17
2018-02-07T05:12:14.777Z,1010.16
2018-02-07T05:12:55.323Z,1010.17
2018-02-07T05:13:35.891Z,1010.2
2018-02-07T05:14:16.464Z,1010.21
2018-02-07T05:14:57.024Z,1010.22
2018-02-07T05:15:37.565Z,1010.2
2018-02-07T05:16:18.131Z,1010.18
2018-02-07T05:16:58.686Z,1010.21
2018-02-07T05:17:39.226Z,1010.16
2018-02-07T05:18:19.780Z,1010.18
2018-02-07T05:19:00.398Z,1010.2
2018-02-07T05:19:40.907Z,1010.18
2018-02-07T05:20:21.459Z,1010.2
2018-02-07T05:21:02.011Z,1010.22
2018-02-07T05:21:42.553Z,1010.25
2018-02-07T05:22:23.086Z,1010.26
2018-02-07T05:23:03.638Z,1010.26
2018-02-07T05:23:44.183Z,1010.24
2018-02-07T05:24:24.748Z,1010.27
2018-02-07T05:25:05.294Z,1010.27
2018-02-07T05:25:45.853Z,1010.28
2018-02-07T05:26:26.411Z,1010.32
2018-02-07T05:27:06.957Z,1010.31
2018-02-07T05:27:47.521Z,1010.28
2018-02-07T05:28:28.138Z,1010.29
2018-02-07T05:29:08.724Z,1010.31
2018-02-07T05:29:49.276Z,1010.29
2018-02-07T05:30:29.826Z,1010.26
2018-02-07T05:31:10.375Z,1010.28
2018-02-07T05:31:50.936Z,1010.28
2018-02-07T05:32:31.483Z,1010.26
2018-02-07T05:33:12.020Z,1010.26
2018-02-07T05:33:52.592Z,1010.34
2018-02-07T05:34:33.202Z,1010.29
2018-02-07T05:35:13.767Z,1010.3
2018-02-07T05:35:54.339Z,1010.3
2018-02-07T05:36:34.899Z,1010.28
2018-02-07T05:37:15.583Z,1010.27
2018-02-07T05:37:56.510Z,1010.25
2018-02-07T05:38:37.196Z,1010.28
2018-02-07T05:39:17.950Z,1010.26
2018-02-07T05:39:58.699Z,1010.27
2018-02-07T05:40:39.230Z,1010.28
2018-02-07T05:41:19.766Z,1010.26
2018-02-07T05:42:00.332Z,1010.24
2018-02-07T05:42:40.902Z,1010.27
2018-02-07T05:43:21.457Z,1010.26
2018-02-07T05:44:02.014Z,1010.22
2018-02-07T05:44:42.562Z,1010.27
2018-02-07T05:45:23.137Z,1010.21
2018-02-07T05:46:03.724Z,1010.18
2018-02-07T05:46:44.259Z,1010.25
2018-02-07T05:47:24.810Z,1010.23
2018-02-07T05:48:05.361Z,1010.26
2018-02-07T05:48:45.911Z,1010.26
2018-02-07T05:49:26.462Z,1010.23
2018-02-07T05:50:07.015Z,1010.23
2018-02-07T05:50:47.572Z,1010.23
2018-02-07T05:51:28.107Z,1010.21
2018-02-07T05:52:08.660Z,1010.24
2018-02-07T05:52:49.200Z,1010.26
2018-02-07T05:53:29.765Z,1010.28
2018-02-07T05:54:10.364Z,1010.28
2018-02-07T05:54:50.854Z,1010.33
2018-02-07T05:55:31.432Z,1010.31
2018-02-07T05:56:12.015Z,1010.33
2018-02-07T05:56:52.593Z,1010.33
2018-02-07T05:57:33.178Z,1010.31
2018-02-07T05:58:13.810Z,1010.36
2018-02-07T05:58:54.375Z,1010.32
2018-02-07T05:59:34.925Z,1010.33
2018-02-07T06:00:15.473Z,1010.38
2018-02-07T06:00:56.035Z,1010.37
2018-02-07T06:01:36.584Z,1010.33
2018-02-07T06:02:17.149Z,1010.35
2018-02-07T06:02:57.720Z,1010.36
2018-02-07T06:03:38.245Z,1010.41
2018-02-07T06:04:18.780Z,1010.37
2018-02-07T06:04:59.354Z,1010.33
2018-02-07T06:05:39.900Z,1010.38
2018-02-07T06:06:20.448Z,1010.41
2018-02-07T06:07:01.007Z,1010.4
2018-02-07T06:07:41.545Z,1010.36
2018-02-07T06:08:22.100Z,1010.38
2018-02-07T06:09:02.921Z,1010.43
2018-02-07T06:09:43.482Z,1010.45
2018-02-07T06:10:24.087Z,1010.46
2018-02-07T06:11:04.652Z,1010.52
2018-02-07T06:11:45.264Z,1010.45
2018-02-07T06:12:25.814Z,1010.46
2018-02-07T06:13:06.360Z,1010.45
2018-02-07T06:13:46.919Z,1010.42
2018-02-07T06:14:27.461Z,1010.45
2018-02-07T06:15:08.022Z,1010.45
2018-02-07T06:15:48.566Z,1010.48
2018-02-07T06:16:29.124Z,1010.47
2018-02-07T06:17:09.682Z,1010.46
2018-02-07T06:17:50.391Z,1010.47
2018-02-07T06:18:30.907Z,1010.48
2018-02-07T06:19:11.477Z,1010.44
2018-02-07T06:19:52.028Z,1010.48
2018-02-07T06:20:32.589Z,1010.45
2018-02-07T06:21:13.131Z,1010.46
2018-02-07T06:21:53.698Z,1010.47
2018-02-07T06:22:34.257Z,1010.45
2018-02-07T06:23:14.828Z,1010.47
2018-02-07T06:23:55.351Z,1010.45
2018-02-07T06:24:35.910Z,1010.44
2018-02-07T06:25:16.456Z,1010.46
2018-02-07T06:25:57.051Z,1010.45
2018-02-07T06:26:37.656Z,1010.46
2018-02-07T06:27:18.227Z,1010.5
2018-02-07T06:27:58.791Z,1010.49
2018-02-07T06:28:39.341Z,1010.52
2018-02-07T06:29:19.884Z,1010.52
2018-02-07T06:30:00.494Z,1010.54
2018-02-07T06:30:41.059Z,1010.53
2018-02-07T06:31:21.744Z,1010.56
2018-02-07T06:32:02.594Z,1010.59
2018-02-07T06:32:43.185Z,1010.58
2018-02-07T06:33:23.788Z,1010.59
2018-02-07T06:34:04.362Z,1010.59
2018-02-07T06:34:44.915Z,1010.6
2018-02-07T06:35:25.460Z,1010.59
2018-02-07T06:36:06.007Z,1010.59
2018-02-07T06:36:46.570Z,1010.58
2018-02-07T06:37:27.154Z,1010.61
2018-02-07T06:38:07.700Z,1010.66
2018-02-07T06:38:48.235Z,1010.62
2018-02-07T06:39:28.877Z,1010.61
2018-02-07T06:40:09.433Z,1010.63
2018-02-07T06:40:49.978Z,1010.64
2018-02-07T06:41:30.529Z,1010.64
2018-02-07T06:42:11.081Z,1010.65
2018-02-07T06:42:51.605Z,1010.67
2018-02-07T06:43:32.151Z,1010.67
2018-02-07T06:44:12.709Z,1010.67
2018-02-07T06:44:53.253Z,1010.64
2018-02-07T06:45:33.855Z,1010.68
2018-02-07T06:46:14.691Z,1010.66
2018-02-07T06:46:55.249Z,1010.65
2018-02-07T06:47:35.805Z,1010.66
2018-02-07T06:48:16.360Z,1010.62
2018-02-07T06:48:57.069Z,1010.61
2018-02-07T06:49:37.784Z,1010.6
2018-02-07T06:50:18.354Z,1010.65
2018-02-07T06:50:58.902Z,1010.61
2018-02-07T06:51:39.451Z,1010.63
2018-02-07T06:52:20.009Z,1010.63
2018-02-07T06:53:00.574Z,1010.63
2018-02-07T06:53:41.142Z,1010.7
2018-02-07T06:54:21.685Z,1010.72
2018-02-07T06:55:02.242Z,1010.71
2018-02-07T06:55:42.805Z,1010.73
2018-02-07T06:56:23.362Z,1010.71
2018-02-07T06:57:03.926Z,1010.75
2018-02-07T06:57:44.475Z,1010.74
2018-02-07T06:58:25.027Z,1010.69
2018-02-07T06:59:05.585Z,1010.72
2018-02-07T06:59:46.129Z,1010.75
2018-02-07T07:00:26.680Z,1010.73
2018-02-07T07:01:07.243Z,1010.73
2018-02-07T07:01:47.802Z,1010.74
2018-02-07T07:02:28.402Z,1010.66
2018-02-07T07:03:08.990Z,1010.66
2018-02-07T07:03:49.538Z,1010.66
2018-02-07T07:04:30.076Z,1010.69
2018-02-07T07:05:10.649Z,1010.71
2018-02-07T07:05:51.207Z,1010.66
2018-02-07T07:06:31.759Z,1010.67
2018-02-07T07:07:12.372Z,1010.71
2018-02-07T07:07:52.945Z,1010.64
2018-02-07T07:08:33.618Z,1010.69
2018-02-07T07:09:14.414Z,1010.71
2018-02-07T07:09:54.975Z,1010.68
2018-02-07T07:10:35.568Z,1010.67
2018-02-07T07:11:16.230Z,1010.72
2018-02-07T07:11:57.186Z,1010.71
2018-02-07T07:12:37.744Z,1010.7
2018-02-07T07:13:18.303Z,1010.69
2018-02-07T07:13:58.836Z,1010.72
2018-02-07T07:14:39.402Z,1010.72
2018-02-07T07:15:19.936Z,1010.68
2018-02-07T07:16:00.486Z,1010.7
2018-02-07T07:16:41.058Z,1010.72
2018-02-07T07:17:21.636Z,1010.73
2018-02-07T07:18:02.220Z,1010.74
2018-02-07T07:18:42.743Z,1010.76
2018-02-07T07:19:23.300Z,1010.71
2018-02-07T07:20:03.890Z,1010.74
2018-02-07T07:20:44.499Z,1010.77
2018-02-07T07:21:25.113Z,1010.71
2018-02-07T07:22:05.805Z,1010.77
2018-02-07T07:22:46.525Z,1010.78
2018-02-07T07:23:27.189Z,1010.76
2018-02-07T07:24:07.777Z,1010.83
2018-02-07T07:24:48.361Z,1010.77
2018-02-07T07:25:28.970Z,1010.79
2018-02-07T07:26:09.555Z,1010.84
2018-02-07T07:26:50.122Z,1010.82
2018-02-07T07:27:30.668Z,1010.83
2018-02-07T07:28:11.227Z,1010.84
2018-02-07T07:28:51.772Z,1010.84
2018-02-07T07:29:32.342Z,1010.85
2018-02-07T07:30:12.906Z,1010.83
2018-02-07T07:30:53.488Z,1010.83
2018-02-07T07:31:34.104Z,1010.84
2018-02-07T07:32:14.695Z,1010.85
2018-02-07T07:32:55.285Z,1010.82
2018-02-07T07:33:35.828Z,1010.81
2018-02-07T07:34:16.382Z,1010.83
2018-02-07T07:34:56.937Z,1010.8
2018-02-07T07:35:37.483Z,1010.82
2018-02-07T07:36:18.078Z,1010.8
2018-02-07T07:36:58.657Z,1010.83
2018-02-07T07:37:39.205Z,1010.83
2018-02-07T07:38:19.816Z,1010.88
2018-02-07T07:39:00.389Z,1010.85
2018-02-07T07:39:40.943Z,1010.83
2018-02-07T07:40:21.527Z,1010.85
2018-02-07T07:41:02.196Z,1010.84
2018-02-07T07:41:42.804Z,1010.86
2018-02-07T07:42:23.347Z,1010.81
2018-02-07T07:43:03.941Z,1010.86
2018-02-07T07:43:44.477Z,1010.84
2018-02-07T07:44:25.031Z,1010.83
2018-02-07T07:45:05.536Z,1010.83
2018-02-07T07:45:46.095Z,1010.85
2018-02-07T07:46:26.741Z,1010.88
2018-02-07T07:47:07.306Z,1010.87
2018-02-07T07:47:47.869Z,1010.92
2018-02-07T07:48:28.469Z,1010.87
2018-02-07T07:49:09.064Z,1010.87
2018-02-07T07:49:49.611Z,1010.92
2018-02-07T07:50:30.194Z,1010.9
2018-02-07T07:51:10.777Z,1010.89
2018-02-07T07:51:51.327Z,1010.92
2018-02-07T07:52:31.874Z,1010.89
2018-02-07T07:53:12.460Z,1010.92
2018-02-07T07:53:52.979Z,1010.91
2018-02-07T07:54:33.534Z,1010.86
2018-02-07T07:55:14.100Z,1010.9
2018-02-07T07:55:54.662Z,1010.89
2018-02-07T07:56:35.214Z,1010.91
2018-02-07T07:57:15.762Z,1010.88
2018-02-07T07:57:56.302Z,1010.81
2018-02-07T07:58:36.853Z,1010.87
2018-02-07T07:59:17.417Z,1010.8
2018-02-07T07:59:57.984Z,1010.85
2018-02-07T08:00:38.538Z,1010.8
2018-02-07T08:01:19.095Z,1010.8
2018-02-07T08:01:59.640Z,1010.85
2018-02-07T08:02:40.184Z,1010.84
2018-02-07T08:03:20.741Z,1010.78
2018-02-07T08:04:01.302Z,1010.83
2018-02-07T08:04:41.876Z,1010.84
2018-02-07T08:05:22.434Z,1010.83
2018-02-07T08:06:02.993Z,1010.8
2018-02-07T08:06:43.563Z,1010.83
2018-02-07T08:07:24.128Z,1010.85
2018-02-07T08:08:04.677Z,1010.84
2018-02-07T08:08:45.229Z,1010.87
2018-02-07T08:09:25.778Z,1010.83
2018-02-07T08:10:06.329Z,1010.84
2018-02-07T08:10:46.881Z,1010.88
2018-02-07T08:11:27.425Z,1010.93
2018-02-07T08:12:08.004Z,1010.86
2018-02-07T08:12:48.552Z,1010.86